Wetterdaten: Woche 04.02.13 - 10.02.13 (KW6)
Datum Zeit Temp. A. Feuchte A. Luftdruck Regen Wind Richtung Taupunkt Windchill Windben
04.02.2013 00:00 3,4 C 94 % 1004,3 hPa 0,2 l/m 6,5 km/h (2 Bft) W-NW 2,6 C 2,9 C 15,0 km/h (3 Bft)
04.02.2013 01:00 3,1 C 95 % 1004,7 hPa 0,0 l/m 3,3 km/h (1 Bft) W-NW 2,3 C 3,1 C 8,0 km/h (2 Bft)
04.02.2013 02:00 3,3 C 95 % 1005,0 hPa 0,0 l/m 3,6 km/h (1 Bft) W 2,6 C 3,3 C 9,4 km/h (2 Bft)
04.02.2013 03:00 3,0 C 94 % 1005,3 hPa 0,0 l/m 2,0 km/h (1 Bft) W 2,1 C 3,0 C 6,1 km/h (2 Bft)
04.02.2013 04:00 3,0 C 95 % 1005,1 hPa 0,0 l/m 2,0 km/h (1 Bft) S-SW 2,3 C 3,0 C 5,5 km/h (2 Bft)
04.02.2013 05:00 3,1 C 95 % 1004,9 hPa 0,0 l/m 1,4 km/h (1 Bft) SW 2,5 C 3,1 C 4,4 km/h (1 Bft)
04.02.2013 06:00 3,3 C 96 % 1004,4 hPa 0,2 l/m 1,4 km/h (1 Bft) SW 2,7 C 3,3 C 4,5 km/h (1 Bft)
04.02.2013 07:00 3,8 C 97 % 1003,9 hPa 0,6 l/m 2,9 km/h (1 Bft) SW 3,3 C 3,8 C 6,8 km/h (2 Bft)
04.02.2013 08:00 4,2 C 97 % 1003,5 hPa 1,4 l/m 3,2 km/h (1 Bft) S-SW 3,8 C 4,2 C 7,6 km/h (2 Bft)
04.02.2013 09:00 4,6 C 97 % 1002,6 hPa 0,8 l/m 5,4 km/h (1 Bft) S-SW 4,2 C 4,6 C 12,5 km/h (2 Bft)
04.02.2013 10:00 5,2 C 97 % 1001,3 hPa 0,8 l/m 6,9 km/h (2 Bft) S-SW 4,8 C 4,6 C 15,4 km/h (3 Bft)
04.02.2013 11:00 5,9 C 97 % 1000,8 hPa 0,8 l/m 6,7 km/h (2 Bft) SW 5,5 C 5,5 C 16,8 km/h (3 Bft)
04.02.2013 12:00 7,3 C 94 % 1000,8 hPa 0,2 l/m 9,4 km/h (2 Bft) W-NW 6,5 C 5,0 C 23,0 km/h (4 Bft)
04.02.2013 13:00 8,0 C 89 % 1001,0 hPa 0,0 l/m 9,6 km/h (2 Bft) W 6,3 C 5,8 C 22,9 km/h (4 Bft)
04.02.2013 14:00 8,1 C 83 % 1001,3 hPa 0,0 l/m 9,4 km/h (2 Bft) W-NW 5,4 C 6,0 C 24,7 km/h (4 Bft)
04.02.2013 15:00 7,8 C 80 % 1002,1 hPa 0,2 l/m 11,1 km/h (2 Bft) W 4,4 C 4,6 C 26,3 km/h (4 Bft)
04.02.2013 16:00 6,9 C 76 % 1002,9 hPa 0,0 l/m 12,7 km/h (3 Bft) W-NW 3,1 C 2,7 C 28,0 km/h (5 Bft)
04.02.2013 17:00 5,7 C 79 % 1003,4 hPa 0,0 l/m 7,4 km/h (2 Bft) W-NW 2,4 C 4,7 C 17,3 km/h (3 Bft)
04.02.2013 18:00 5,4 C 77 % 1003,7 hPa 0,0 l/m 6,0 km/h (2 Bft) W-NW 1,8 C 5,2 C 15,3 km/h (3 Bft)
04.02.2013 19:00 5,3 C 79 % 1004,2 hPa 0,0 l/m 7,5 km/h (2 Bft) W 2,0 C 4,3 C 18,5 km/h (3 Bft)
04.02.2013 20:00 5,3 C 80 % 1004,2 hPa 0,0 l/m 8,3 km/h (2 Bft) W 2,1 C 3,8 C 20,1 km/h (4 Bft)
04.02.2013 21:00 5,3 C 79 % 1004,2 hPa 0,0 l/m 7,6 km/h (2 Bft) W 2,0 C 4,2 C 18,9 km/h (3 Bft)
04.02.2013 22:00 4,6 C 82 % 1004,0 hPa 0,0 l/m 7,0 km/h (2 Bft) W-SW 1,7 C 4,0 C 17,2 km/h (3 Bft)
04.02.2013 23:00 4,3 C 83 % 1003,6 hPa 0,0 l/m 7,5 km/h (2 Bft) W 1,7 C 3,3 C 18,2 km/h (3 Bft)
05.02.2013 00:00 3,8 C 86 % 1003,2 hPa 0,0 l/m 5,5 km/h (2 Bft) SW 1,6 C 3,7 C 13,7 km/h (3 Bft)
05.02.2013 01:00 3,6 C 86 % 1002,6 hPa 0,0 l/m 5,8 km/h (2 Bft) S-SW 1,5 C 3,4 C 15,0 km/h (3 Bft)
05.02.2013 02:00 4,4 C 84 % 1001,8 hPa 0,0 l/m 6,7 km/h (2 Bft) SW 1,9 C 3,9 C 15,7 km/h (3 Bft)
05.02.2013 03:00 4,7 C 82 % 1000,7 hPa 0,0 l/m 7,0 km/h (2 Bft) SW 2,0 C 4,1 C 16,4 km/h (3 Bft)
05.02.2013 04:00 4,3 C 83 % 999,7 hPa 0,0 l/m 6,6 km/h (2 Bft) SW 1,7 C 3,9 C 15,3 km/h (3 Bft)
05.02.2013 05:00 4,4 C 85 % 998,7 hPa 0,0 l/m 6,8 km/h (2 Bft) SW 2,1 C 3,9 C 16,5 km/h (3 Bft)
05.02.2013 06:00 4,5 C 84 % 997,5 hPa 0,0 l/m 7,0 km/h (2 Bft) S-SW 2,0 C 3,8 C 16,5 km/h (3 Bft)
05.02.2013 07:00 4,8 C 82 % 996,4 hPa 0,0 l/m 7,8 km/h (2 Bft) S-SW 2,0 C 3,6 C 18,9 km/h (3 Bft)
05.02.2013 08:00 4,9 C 81 % 995,7 hPa 0,0 l/m 9,7 km/h (2 Bft) SW 1,9 C 2,3 C 20,8 km/h (4 Bft)
05.02.2013 09:00 5,2 C 79 % 994,1 hPa 0,0 l/m 9,7 km/h (2 Bft) S-SW 1,9 C 2,5 C 20,6 km/h (4 Bft)
05.02.2013 10:00 4,2 C 86 % 993,6 hPa 0,4 l/m 12,3 km/h (2 Bft) SW 2,1 C -0,2 C 27,1 km/h (5 Bft)
05.02.2013 11:00 3,2 C 90 % 994,1 hPa 0,2 l/m 8,8 km/h (2 Bft) SW 1,8 C 1,1 C 21,4 km/h (4 Bft)
05.02.2013 12:00 3,3 C 90 % 993,8 hPa 0,2 l/m 9,0 km/h (2 Bft) S 1,8 C 1,0 C 21,0 km/h (4 Bft)
05.02.2013 13:00 1,7 C 92 % 994,2 hPa 1,2 l/m 8,4 km/h (2 Bft) W 0,6 C -0,2 C 21,2 km/h (4 Bft)
05.02.2013 14:00 2,2 C 91 % 994,6 hPa 0,0 l/m 6,7 km/h (2 Bft) SW 0,9 C 1,5 C 16,2 km/h (3 Bft)
05.02.2013 15:00 2,6 C 88 % 994,6 hPa 0,0 l/m 7,3 km/h (2 Bft) W-SW 0,8 C 1,6 C 17,7 km/h (3 Bft)
05.02.2013 16:00 1,8 C 89 % 994,9 hPa 0,0 l/m 6,0 km/h (2 Bft) W-SW 0,2 C 1,7 C 15,4 km/h (3 Bft)
05.02.2013 17:00 1,8 C 86 % 995,1 hPa 0,0 l/m 6,5 km/h (2 Bft) S-SW -0,4 C 1,4 C 16,0 km/h (3 Bft)
05.02.2013 18:00 1,2 C 89 % 995,5 hPa 0,0 l/m 4,6 km/h (1 Bft) W-NW -0,4 C 1,0 C 11,8 km/h (2 Bft)
05.02.2013 19:00 0,3 C 93 % 995,6 hPa 0,0 l/m 3,1 km/h (1 Bft) SW -0,7 C 0,3 C 8,3 km/h (2 Bft)
05.02.2013 20:00 -0,2 C 93 % 995,8 hPa 0,0 l/m 2,6 km/h (1 Bft) S-SW -1,2 C -0,2 C 7,6 km/h (2 Bft)
05.02.2013 21:00 0,2 C 92 % 995,9 hPa 0,0 l/m 4,2 km/h (1 Bft) SW -0,9 C 0,2 C 11,2 km/h (2 Bft)
05.02.2013 22:00 0,3 C 91 % 996,2 hPa 0,0 l/m 3,8 km/h (1 Bft) S-SW -1,0 C 0,3 C 9,7 km/h (2 Bft)
05.02.2013 23:00 -0,1 C 91 % 996,3 hPa 0,0 l/m 3,2 km/h (1 Bft) S-SW -1,4 C -0,1 C 8,6 km/h (2 Bft)
06.02.2013 00:00 -0,6 C 93 % 996,4 hPa 0,0 l/m 3,1 km/h (1 Bft) S-SW -1,6 C -0,6 C 7,9 km/h (2 Bft)
06.02.2013 01:00 -1,0 C 93 % 996,6 hPa 0,0 l/m 1,3 km/h (1 Bft) S-SW -2,0 C -1,0 C 4,8 km/h (1 Bft)
06.02.2013 02:00 -1,5 C 94 % 996,9 hPa 0,0 l/m 0,3 km/h (0 Bft) S-SW -2,3 C -1,5 C 1,9 km/h (1 Bft)
06.02.2013 03:00 -1,5 C 94 % 996,8 hPa 0,0 l/m 0,5 km/h (0 Bft) N -2,4 C -1,5 C 2,7 km/h (1 Bft)
06.02.2013 04:00 -2,7 C 94 % 996,6 hPa 0,0 l/m 0,0 km/h (0 Bft) N -3,5 C -2,7 C 0,4 km/h (0 Bft)
06.02.2013 05:00 -3,4 C 95 % 996,9 hPa 0,0 l/m 0,0 km/h (0 Bft) N -4,0 C -3,4 C 0,0 km/h (0 Bft)
06.02.2013 06:00 -3,6 C 96 % 997,0 hPa 0,0 l/m 0,0 km/h (0 Bft) N -4,2 C -3,6 C 0,0 km/h (0 Bft)
06.02.2013 07:00 -4,1 C 96 % 997,3 hPa 0,0 l/m 0,0 km/h (0 Bft) N -4,7 C -4,1 C 0,0 km/h (0 Bft)
06.02.2013 08:00 -3,7 C 96 % 997,6 hPa 0,0 l/m 0,0 km/h (0 Bft) N -4,3 C -3,7 C 0,0 km/h (0 Bft)
06.02.2013 09:00 -1,1 C 95 % 997,9 hPa 0,0 l/m 0,0 km/h (0 Bft) N -1,7 C -1,1 C 0,0 km/h (0 Bft)
06.02.2013 10:00 0,4 C 90 % 998,2 hPa 0,0 l/m 2,4 km/h (1 Bft) SW -1,0 C 0,4 C 6,4 km/h (2 Bft)
06.02.2013 11:00 1,9 C 85 % 998,5 hPa 0,0 l/m 3,6 km/h (1 Bft) S-SW -0,4 C 1,9 C 9,1 km/h (2 Bft)
06.02.2013 12:00 2,5 C 82 % 998,5 hPa 0,2 l/m 3,9 km/h (1 Bft) SW -0,2 C 2,5 C 10,1 km/h (2 Bft)
06.02.2013 13:00 3,4 C 80 % 998,4 hPa 0,2 l/m 3,8 km/h (1 Bft) S 0,2 C 3,4 C 9,9 km/h (2 Bft)
06.02.2013 14:00 4,1 C 75 % 998,7 hPa 0,0 l/m 4,2 km/h (1 Bft) W 0,1 C 4,1 C 10,9 km/h (2 Bft)
06.02.2013 15:00 4,1 C 71 % 998,8 hPa 0,0 l/m 3,9 km/h (1 Bft) W -0,7 C 4,1 C 10,9 km/h (2 Bft)
06.02.2013 16:00 3,2 C 73 % 999,1 hPa 0,0 l/m 2,8 km/h (1 Bft) W -1,1 C 3,2 C 7,5 km/h (2 Bft)
06.02.2013 17:00 2,6 C 77 % 999,5 hPa 0,0 l/m 1,6 km/h (1 Bft) W -1,0 C 2,6 C 4,8 km/h (1 Bft)
06.02.2013 18:00 2,2 C 81 % 1000,1 hPa 0,0 l/m 2,2 km/h (1 Bft) W -0,7 C 2,2 C 5,7 km/h (2 Bft)
06.02.2013 19:00 1,8 C 84 % 1000,5 hPa 0,0 l/m 2,3 km/h (1 Bft) SW -0,6 C 1,8 C 6,3 km/h (2 Bft)
06.02.2013 20:00 1,8 C 87 % 1000,8 hPa 0,0 l/m 2,3 km/h (1 Bft) S-SW -0,2 C 1,8 C 6,4 km/h (2 Bft)
06.02.2013 21:00 1,9 C 89 % 1000,8 hPa 0,0 l/m 3,3 km/h (1 Bft) W 0,3 C 1,9 C 8,7 km/h (2 Bft)
06.02.2013 22:00 1,5 C 93 % 1000,9 hPa 0,0 l/m 2,8 km/h (1 Bft) W 0,5 C 1,5 C 8,2 km/h (2 Bft)
06.02.2013 23:00 1,8 C 94 % 1001,2 hPa 0,0 l/m 3,1 km/h (1 Bft) W 0,9 C 1,8 C 8,2 km/h (2 Bft)
07.02.2013 00:00 1,9 C 93 % 1001,6 hPa 0,0 l/m 3,3 km/h (1 Bft) W-SW 0,9 C 1,9 C 8,5 km/h (2 Bft)
07.02.2013 01:00 1,7 C 92 % 1002,0 hPa 0,0 l/m 4,0 km/h (1 Bft) W-SW 0,6 C 1,7 C 9,1 km/h (2 Bft)
07.02.2013 02:00 1,2 C 89 % 1002,4 hPa 0,0 l/m 4,1 km/h (1 Bft) W-NW -0,5 C 1,2 C 10,5 km/h (2 Bft)
07.02.2013 03:00 0,7 C 90 % 1002,8 hPa 0,0 l/m 3,7 km/h (1 Bft) W-NW -0,8 C 0,5 C 9,5 km/h (2 Bft)
07.02.2013 04:00 0,3 C 89 % 1003,2 hPa 0,0 l/m 4,4 km/h (1 Bft) W-NW -1,2 C 0,1 C 9,6 km/h (2 Bft)
07.02.2013 05:00 0,1 C 91 % 1003,4 hPa 0,0 l/m 0,6 km/h (0 Bft) NW -1,2 C 0,1 C 2,4 km/h (1 Bft)
07.02.2013 06:00 -0,2 C 94 % 1003,9 hPa 0,0 l/m 0,0 km/h (0 Bft) N -1,0 C -0,2 C 0,0 km/h (0 Bft)
07.02.2013 07:00 -0,0 C 94 % 1004,5 hPa 0,0 l/m 0,9 km/h (0 Bft) NW -0,8 C -0,0 C 2,7 km/h (1 Bft)
07.02.2013 08:00 -0,0 C 93 % 1005,3 hPa 0,0 l/m 3,9 km/h (1 Bft) NW -1,0 C -0,0 C 6,8 km/h (2 Bft)
07.02.2013 09:00 0,2 C 90 % 1005,9 hPa 0,0 l/m 2,5 km/h (1 Bft) NW -1,2 C 0,2 C 5,3 km/h (1 Bft)
07.02.2013 10:00 0,8 C 89 % 1006,3 hPa 0,2 l/m 3,4 km/h (1 Bft) W -0,9 C 0,8 C 8,3 km/h (2 Bft)
07.02.2013 11:00 0,6 C 91 % 1006,9 hPa 0,0 l/m 3,9 km/h (1 Bft) W-NW -0,7 C 0,6 C 9,3 km/h (2 Bft)
07.02.2013 12:00 0,5 C 92 % 1007,4 hPa 0,2 l/m 5,8 km/h (2 Bft) NW -0,7 C 0,3 C 11,0 km/h (2 Bft)
07.02.2013 13:00 1,0 C 89 % 1007,6 hPa 0,2 l/m 4,4 km/h (1 Bft) W-NW -0,7 C 1,0 C 8,4 km/h (2 Bft)
07.02.2013 14:00 1,3 C 86 % 1007,8 hPa 0,0 l/m 4,8 km/h (1 Bft) W-SW -0,7 C 1,3 C 10,6 km/h (2 Bft)
07.02.2013 15:00 1,3 C 86 % 1008,2 hPa 0,0 l/m 4,5 km/h (1 Bft) W -0,9 C 1,3 C 10,6 km/h (2 Bft)
07.02.2013 16:00 1,0 C 88 % 1008,4 hPa 0,0 l/m 3,5 km/h (1 Bft) W -0,8 C 1,0 C 8,3 km/h (2 Bft)
07.02.2013 17:00 0,7 C 89 % 1008,8 hPa 0,0 l/m 3,3 km/h (1 Bft) W-NW -0,9 C 0,7 C 8,7 km/h (2 Bft)
07.02.2013 18:00 0,5 C 90 % 1009,1 hPa 0,0 l/m 2,3 km/h (1 Bft) W-NW -1,0 C 0,5 C 5,9 km/h (2 Bft)
07.02.2013 19:00 0,3 C 91 % 1009,5 hPa 0,0 l/m 1,7 km/h (1 Bft) W -1,0 C 0,3 C 4,8 km/h (1 Bft)
07.02.2013 20:00 -0,2 C 92 % 1009,8 hPa 0,0 l/m 0,8 km/h (0 Bft) W-SW -1,3 C -0,2 C 2,9 km/h (1 Bft)
07.02.2013 21:00 -0,3 C 93 % 1009,9 hPa 0,0 l/m 1,1 km/h (0 Bft) W -1,3 C -0,3 C 3,2 km/h (1 Bft)
07.02.2013 22:00 -0,3 C 94 % 1010,1 hPa 0,0 l/m 1,4 km/h (1 Bft) W-NW -1,1 C -0,3 C 4,5 km/h (1 Bft)
07.02.2013 23:00 -0,3 C 94 % 1010,1 hPa 0,0 l/m 0,6 km/h (0 Bft) W -1,2 C -0,3 C 2,3 km/h (1 Bft)
08.02.2013 00:00 -0,4 C 94 % 1010,2 hPa 0,0 l/m 0,8 km/h (0 Bft) W-SW -1,2 C -0,4 C 3,6 km/h (1 Bft)
08.02.2013 01:00 -0,5 C 95 % 1010,0 hPa 0,0 l/m 1,4 km/h (1 Bft) W -1,2 C -0,5 C 4,4 km/h (1 Bft)
08.02.2013 02:00 -0,6 C 95 % 1010,1 hPa 0,0 l/m 1,2 km/h (1 Bft) W-NW -1,3 C -0,6 C 3,5 km/h (1 Bft)
08.02.2013 03:00 -0,6 C 94 % 1010,2 hPa 0,0 l/m 2,0 km/h (1 Bft) W -1,4 C -0,6 C 4,7 km/h (1 Bft)
08.02.2013 04:00 -0,8 C 93 % 1010,3 hPa 0,0 l/m 3,5 km/h (1 Bft) N-NW -1,7 C -0,9 C 6,4 km/h (2 Bft)
08.02.2013 05:00 -1,2 C 93 % 1010,5 hPa 0,0 l/m 3,7 km/h (1 Bft) NW -2,3 C -1,2 C 5,9 km/h (2 Bft)
08.02.2013 06:00 -1,3 C 93 % 1010,8 hPa 0,0 l/m 2,6 km/h (1 Bft) W-NW -2,2 C -1,3 C 6,1 km/h (2 Bft)
08.02.2013 07:00 -1,3 C 93 % 1011,1 hPa 0,0 l/m 1,8 km/h (1 Bft) W -2,2 C -1,3 C 5,1 km/h (1 Bft)
08.02.2013 08:00 -1,3 C 92 % 1011,4 hPa 0,0 l/m 2,6 km/h (1 Bft) NW -2,4 C -1,3 C 5,5 km/h (2 Bft)
08.02.2013 09:00 -1,0 C 91 % 1011,7 hPa 0,0 l/m 3,7 km/h (1 Bft) NW -2,3 C -1,0 C 7,5 km/h (2 Bft)
08.02.2013 10:00 -0,8 C 89 % 1011,9 hPa 0,0 l/m 6,0 km/h (2 Bft) NW -2,3 C -1,6 C 10,7 km/h (2 Bft)
08.02.2013 11:00 -0,4 C 88 % 1012,1 hPa 0,0 l/m 5,4 km/h (2 Bft) W-NW -2,2 C -0,6 C 10,2 km/h (2 Bft)
08.02.2013 12:00 -0,3 C 87 % 1012,2 hPa 0,0 l/m 5,0 km/h (1 Bft) NW -2,2 C -0,4 C 10,5 km/h (2 Bft)
08.02.2013 13:00 -0,0 C 85 % 1012,3 hPa 0,0 l/m 6,1 km/h (2 Bft) W-NW -2,3 C -0,4 C 11,8 km/h (2 Bft)
08.02.2013 14:00 -0,4 C 89 % 1012,5 hPa 0,0 l/m 5,5 km/h (2 Bft) W-NW -2,0 C -1,2 C 10,6 km/h (2 Bft)
08.02.2013 15:00 -0,7 C 92 % 1012,7 hPa 0,0 l/m 4,8 km/h (1 Bft) W-NW -1,9 C -1,0 C 10,1 km/h (2 Bft)
08.02.2013 16:00 -1,2 C 94 % 1013,0 hPa 0,0 l/m 1,5 km/h (1 Bft) W -2,0 C -1,2 C 4,3 km/h (1 Bft)
08.02.2013 17:00 -1,1 C 94 % 1013,4 hPa 0,0 l/m 1,1 km/h (1 Bft) W-NW -2,0 C -1,1 C 3,6 km/h (1 Bft)
08.02.2013 18:00 -1,2 C 94 % 1013,7 hPa 0,0 l/m 0,8 km/h (0 Bft) W-NW -2,0 C -1,2 C 2,9 km/h (1 Bft)
08.02.2013 19:00 -1,1 C 94 % 1014,1 hPa 0,0 l/m 2,1 km/h (1 Bft) W-NW -2,0 C -1,1 C 4,9 km/h (1 Bft)
08.02.2013 20:00 -1,3 C 94 % 1014,4 hPa 0,0 l/m 2,3 km/h (1 Bft) NW -2,1 C -1,3 C 4,3 km/h (1 Bft)
08.02.2013 21:00 -1,1 C 94 % 1014,9 hPa 0,0 l/m 3,5 km/h (1 Bft) NW -1,9 C -1,1 C 5,5 km/h (2 Bft)
08.02.2013 22:00 -1,2 C 94 % 1015,1 hPa 0,0 l/m 2,1 km/h (1 Bft) W-NW -2,0 C -1,2 C 4,7 km/h (1 Bft)
08.02.2013 23:00 -1,1 C 94 % 1015,5 hPa 0,0 l/m 3,6 km/h (1 Bft) NW -2,0 C -1,1 C 6,5 km/h (2 Bft)
09.02.2013 00:00 -1,2 C 94 % 1015,6 hPa 0,0 l/m 3,6 km/h (1 Bft) W-NW -2,0 C -1,2 C 7,2 km/h (2 Bft)
09.02.2013 01:00 -1,3 C 94 % 1015,7 hPa 0,0 l/m 3,8 km/h (1 Bft) W-NW -2,1 C -1,3 C 8,6 km/h (2 Bft)
09.02.2013 02:00 -1,4 C 95 % 1016,0 hPa 0,0 l/m 4,1 km/h (1 Bft) NW -2,1 C -1,4 C 7,8 km/h (2 Bft)
09.02.2013 03:00 -1,3 C 96 % 1016,1 hPa 0,0 l/m 4,4 km/h (1 Bft) W-NW -1,9 C -1,3 C 7,5 km/h (2 Bft)
09.02.2013 04:00 -1,3 C 95 % 1016,3 hPa 0,0 l/m 4,9 km/h (1 Bft) NW -2,0 C -1,6 C 8,4 km/h (2 Bft)
09.02.2013 05:00 -1,2 C 94 % 1016,6 hPa 0,0 l/m 4,0 km/h (1 Bft) NW -2,0 C -1,2 C 7,2 km/h (2 Bft)
09.02.2013 06:00 -1,4 C 94 % 1016,8 hPa 0,0 l/m 2,9 km/h (1 Bft) NW -2,2 C -1,4 C 5,5 km/h (2 Bft)
09.02.2013 07:00 -1,9 C 94 % 1017,2 hPa 0,0 l/m 0,4 km/h (0 Bft) W-NW -2,7 C -1,9 C 1,7 km/h (1 Bft)
09.02.2013 08:00 -2,2 C 94 % 1017,7 hPa 0,0 l/m 0,0 km/h (0 Bft) N -3,0 C -2,2 C 0,0 km/h (0 Bft)
09.02.2013 09:00 -1,4 C 93 % 1018,0 hPa 0,0 l/m 0,8 km/h (0 Bft) W-NW -2,4 C -1,4 C 2,8 km/h (1 Bft)
09.02.2013 10:00 -0,9 C 93 % 1018,4 hPa 0,0 l/m 1,4 km/h (1 Bft) NW -2,0 C -0,9 C 4,3 km/h (1 Bft)
09.02.2013 11:00 -0,8 C 92 % 1018,6 hPa 0,0 l/m 3,5 km/h (1 Bft) NW -1,9 C -0,8 C 7,1 km/h (2 Bft)
09.02.2013 12:00 -0,7 C 91 % 1018,6 hPa 0,0 l/m 3,1 km/h (1 Bft) NW -2,0 C -0,7 C 6,4 km/h (2 Bft)
09.02.2013 13:00 -0,3 C 90 % 1018,5 hPa 0,0 l/m 1,6 km/h (1 Bft) W-NW -1,7 C -0,3 C 4,3 km/h (1 Bft)
09.02.2013 14:00 -1,0 C 91 % 1018,5 hPa 0,0 l/m 2,3 km/h (1 Bft) W-NW -2,2 C -1,0 C 4,3 km/h (1 Bft)
09.02.2013 15:00 -1,2 C 92 % 1018,6 hPa 0,0 l/m 1,6 km/h (1 Bft) W-NW -2,3 C -1,2 C 1,6 km/h (1 Bft)
09.02.2013 16:00 -1,4 C 91 % 1018,5 hPa 0,0 l/m 1,3 km/h (1 Bft) W-NW -2,7 C -1,4 C 3,1 km/h (1 Bft)
09.02.2013 17:00 -2,3 C 93 % 1018,5 hPa 0,0 l/m 0,0 km/h (0 Bft) N -3,3 C -2,3 C 0,0 km/h (0 Bft)
09.02.2013 18:00 -3,4 C 95 % 1018,7 hPa 0,0 l/m 0,0 km/h (0 Bft) N -4,1 C -3,4 C 0,0 km/h (0 Bft)
09.02.2013 19:00 -3,1 C 95 % 1018,7 hPa 0,0 l/m 0,0 km/h (0 Bft) N -3,8 C -3,1 C 0,0 km/h (0 Bft)
09.02.2013 20:00 -3,1 C 95 % 1018,7 hPa 0,0 l/m 0,0 km/h (0 Bft) N -3,8 C -3,1 C 0,0 km/h (0 Bft)
09.02.2013 21:00 -3,2 C 95 % 1018,5 hPa 0,0 l/m 0,0 km/h (0 Bft) N -3,9 C -3,2 C 0,0 km/h (0 Bft)
09.02.2013 22:00 -4,8 C 95 % 1018,4 hPa 0,0 l/m 0,0 km/h (0 Bft) N -5,4 C -4,8 C 0,0 km/h (0 Bft)
09.02.2013 23:00 -4,7 C 95 % 1018,1 hPa 0,0 l/m 0,0 km/h (0 Bft) N -5,3 C -4,7 C 0,0 km/h (0 Bft)
10.02.2013 00:00 -4,0 C 96 % 1018,0 hPa 0,0 l/m 0,0 km/h (0 Bft) N -4,6 C -4,0 C 0,0 km/h (0 Bft)
10.02.2013 01:00 -3,9 C 96 % 1017,9 hPa 0,0 l/m 0,0 km/h (0 Bft) N -4,5 C -3,9 C 0,0 km/h (0 Bft)
10.02.2013 02:00 -4,7 C 96 % 1017,8 hPa 0,0 l/m 0,0 km/h (0 Bft) N -5,2 C -4,7 C 0,0 km/h (0 Bft)
10.02.2013 03:00 -4,6 C 96 % 1017,5 hPa 0,0 l/m 0,0 km/h (0 Bft) N -5,1 C -4,6 C 0,0 km/h (0 Bft)
10.02.2013 04:00 -4,3 C 96 % 1017,2 hPa 0,0 l/m 0,0 km/h (0 Bft) N -4,9 C -4,3 C 0,0 km/h (0 Bft)
10.02.2013 05:00 -4,3 C 96 % 1017,0 hPa 0,0 l/m 0,0 km/h (0 Bft) N -4,9 C -4,3 C 0,0 km/h (0 Bft)
10.02.2013 06:00 -4,2 C 96 % 1016,8 hPa 0,0 l/m 0,0 km/h (0 Bft) N -4,8 C -4,2 C 0,0 km/h (0 Bft)
10.02.2013 07:00 -4,0 C 96 % 1016,8 hPa 0,0 l/m 0,0 km/h (0 Bft) N -4,5 C -4,0 C 0,0 km/h (0 Bft)
10.02.2013 08:00 -3,8 C 96 % 1016,8 hPa 0,0 l/m 0,0 km/h (0 Bft) N -4,3 C -3,8 C 0,0 km/h (0 Bft)
10.02.2013 09:00 -3,2 C 96 % 1016,7 hPa 0,0 l/m 0,0 km/h (0 Bft) N -3,7 C -3,2 C 0,0 km/h (0 Bft)
10.02.2013 10:00 -1,8 C 95 % 1016,5 hPa 0,0 l/m 0,3 km/h (0 Bft) O-SO -2,4 C -1,8 C 0,7 km/h (0 Bft)
10.02.2013 11:00 -0,5 C 88 % 1016,4 hPa 0,0 l/m 2,5 km/h (1 Bft) O-SO -2,2 C -0,5 C 5,2 km/h (1 Bft)
10.02.2013 12:00 0,4 C 83 % 1015,8 hPa 0,2 l/m 3,7 km/h (1 Bft) S-SO -2,3 C 0,4 C 7,8 km/h (2 Bft)
10.02.2013 13:00 1,0 C 75 % 1015,2 hPa 0,2 l/m 4,4 km/h (1 Bft) S-SW -3,0 C 1,0 C 9,4 km/h (2 Bft)
10.02.2013 14:00 1,2 C 67 % 1014,5 hPa 0,4 l/m 4,7 km/h (1 Bft) S-SO -4,2 C 1,2 C 9,9 km/h (2 Bft)
10.02.2013 15:00 0,8 C 65 % 1014,2 hPa 0,0 l/m 3,4 km/h (1 Bft) S-SO -5,0 C 0,8 C 7,0 km/h (2 Bft)
10.02.2013 16:00 -0,1 C 73 % 1013,9 hPa 0,0 l/m 3,3 km/h (1 Bft) S-SO -4,3 C -0,1 C 8,3 km/h (2 Bft)
10.02.2013 17:00 -1,0 C 79 % 1013,6 hPa 0,0 l/m 3,5 km/h (1 Bft) SO -4,2 C -1,0 C 7,9 km/h (2 Bft)
10.02.2013 18:00 -2,3 C 83 % 1013,5 hPa 0,0 l/m 3,0 km/h (1 Bft) O-SO -4,8 C -2,3 C 6,3 km/h (2 Bft)
10.02.2013 19:00 -3,2 C 88 % 1013,4 hPa 0,0 l/m 3,0 km/h (1 Bft) O-SO -4,9 C -3,2 C 7,1 km/h (2 Bft)
10.02.2013 20:00 -3,4 C 90 % 1013,3 hPa 0,0 l/m 3,9 km/h (1 Bft) O-SO -4,8 C -3,4 C 7,5 km/h (2 Bft)
10.02.2013 21:00 -3,5 C 91 % 1013,2 hPa 0,0 l/m 5,2 km/h (1 Bft) O-SO -4,7 C -3,5 C 10,8 km/h (2 Bft)
10.02.2013 22:00 -3,8 C 92 % 1012,8 hPa 0,0 l/m 7,3 km/h (2 Bft) O-SO -4,9 C -4,8 C 13,7 km/h (3 Bft)
10.02.2013 23:00 -4,3 C 92 % 1012,5 hPa 0,0 l/m 6,5 km/h (2 Bft) O-SO -5,3 C -4,8 C 13,0 km/h (3 Bft)
Min-Datum _ 09.02.13 10.02.13 05.02.13 - 06.02.13 - 09.02.13 10.02.13 06.02.13
_ Min-Zeit 22:15 15:00 10:15 - 02:05 - 22:15 22:35 02:05
Minimum _ -4,9 C 63 % 993,3 hPa - 0,0 km/h (0 Bft) - -5,6 C -6,3 C 0,0 km/h (0 Bft)
Max-Datum _ 04.02.13 04.02.13 09.02.13 04.02.13 04.02.13 - 04.02.13 04.02.13 04.02.13
_ Max-Zeit 13:55 07:30 18:55 08:00 16:40 - 12:50 14:20 13:55
Maximum _ 8,6 C 97 % 1018,8 hPa 1,4 l/m 17,3 km/h
W-NW (3 Bft)
- 6,6 C 8,2 C 38,6 km/h
W-NW (6 Bft)
Durchschnitt _ 0,5 C 90 % 1007,2 hPa #9,0 l/m 3,5 km/h (1 Bft) W-NW -1,0 C 0,2 C 8,3 km/h (2 Bft)